createdAt,value
2022-12-20T00:01:19.761Z,10.60
2022-12-20T00:05:24.034Z,10.50
2022-12-20T00:09:26.873Z,10.50
2022-12-20T00:13:30.128Z,10.50
2022-12-20T00:17:33.033Z,10.50
2022-12-20T00:21:38.115Z,10.40
2022-12-20T00:25:40.974Z,10.40
2022-12-20T00:29:43.787Z,10.40
2022-12-20T00:33:49.382Z,10.30
2022-12-20T00:37:53.561Z,10.20
2022-12-20T00:41:56.413Z,10.20
2022-12-20T00:45:59.981Z,10.10
2022-12-20T00:50:02.877Z,10.20
2022-12-20T00:54:07.130Z,10.30
2022-12-20T00:58:10.258Z,10.40
2022-12-20T01:02:13.237Z,10.40
2022-12-20T01:06:17.801Z,10.40
2022-12-20T01:10:21.978Z,10.40
2022-12-20T01:14:24.810Z,10.40
2022-12-20T01:18:27.645Z,10.50
2022-12-20T01:22:30.750Z,10.50
2022-12-20T01:26:35.060Z,10.50
2022-12-20T01:30:41.590Z,10.50
2022-12-20T01:34:44.500Z,10.50
2022-12-20T01:38:47.698Z,10.60
2022-12-20T01:42:51.863Z,10.60
2022-12-20T01:46:56.091Z,10.70
2022-12-20T01:50:58.986Z,10.70
2022-12-20T01:55:08.118Z,10.70
2022-12-20T01:59:13.885Z,10.80
2022-12-20T02:03:18.178Z,10.80
2022-12-20T02:07:25.449Z,10.80
2022-12-20T02:11:50.036Z,10.70
2022-12-20T02:15:57.319Z,10.70
2022-12-20T02:20:24.538Z,10.60
2022-12-20T02:25:06.312Z,10.60
2022-12-20T02:29:23.210Z,10.70
2022-12-20T02:33:29.380Z,10.70
2022-12-20T02:37:32.256Z,10.70
2022-12-20T02:41:39.849Z,10.70
2022-12-20T02:45:42.985Z,10.70
2022-12-20T02:49:51.527Z,10.70
2022-12-20T02:53:54.571Z,10.70
2022-12-20T02:58:02.627Z,10.60
2022-12-20T03:02:07.289Z,10.50
2022-12-20T03:06:12.023Z,10.40
2022-12-20T03:10:14.971Z,10.50
2022-12-20T03:14:17.916Z,10.60
2022-12-20T03:18:22.705Z,10.60
2022-12-20T03:22:27.456Z,10.60
2022-12-20T03:26:30.355Z,10.50
2022-12-20T03:30:36.398Z,10.50
2022-12-20T03:34:39.581Z,10.50
2022-12-20T03:38:43.840Z,10.50
2022-12-20T03:42:46.704Z,10.50
2022-12-20T03:46:49.584Z,10.60
2022-12-20T03:50:52.592Z,10.60
2022-12-20T03:54:56.828Z,10.60
2022-12-20T03:59:07.049Z,10.60
2022-12-20T04:03:10.278Z,10.70
2022-12-20T04:07:13.470Z,10.80
2022-12-20T04:11:22.226Z,10.90
2022-12-20T04:15:47.876Z,11.00
2022-12-20T04:19:53.662Z,10.90
2022-12-20T04:23:56.988Z,11.00
2022-12-20T04:28:04.415Z,11.00
2022-12-20T04:32:07.300Z,11.00
2022-12-20T04:36:10.685Z,10.90
2022-12-20T04:40:16.690Z,11.00
2022-12-20T04:44:26.439Z,10.80
2022-12-20T04:48:55.763Z,10.70
2022-12-20T04:53:11.089Z,10.70
2022-12-20T04:57:14.080Z,10.70
2022-12-20T05:01:19.497Z,10.50
2022-12-20T05:05:27.229Z,10.30
2022-12-20T05:09:33.677Z,10.10
2022-12-20T05:13:37.667Z,10.00
2022-12-20T05:17:43.657Z,9.80
2022-12-20T05:22:06.847Z,9.60
2022-12-20T05:26:18.973Z,9.50
2022-12-20T05:30:23.876Z,9.40
2022-12-20T05:34:28.325Z,9.30
2022-12-20T05:38:32.355Z,9.20
2022-12-20T05:42:36.376Z,9.20
2022-12-20T05:46:39.662Z,9.10
2022-12-20T05:50:49.208Z,9.10
2022-12-20T05:55:03.950Z,9.00
2022-12-20T05:59:07.627Z,9.00
2022-12-20T06:03:14.469Z,8.90
2022-12-20T06:07:19.816Z,8.80
2022-12-20T06:11:30.268Z,8.70
2022-12-20T06:15:44.370Z,8.70
2022-12-20T06:19:47.223Z,8.60
2022-12-20T06:23:54.253Z,8.50
2022-12-20T06:27:58.309Z,8.40
2022-12-20T06:32:01.305Z,8.40
2022-12-20T06:36:04.750Z,8.40
2022-12-20T06:40:10.678Z,8.40
2022-12-20T06:44:13.625Z,8.40
2022-12-20T06:48:16.682Z,8.50
2022-12-20T06:52:20.374Z,8.50
2022-12-20T06:56:27.806Z,8.50
2022-12-20T07:00:30.981Z,8.60
2022-12-20T07:04:34.255Z,8.60
2022-12-20T07:08:37.097Z,8.60
2022-12-20T07:12:47.460Z,8.60
2022-12-20T07:16:51.223Z,8.60
2022-12-20T07:20:54.099Z,8.60
2022-12-20T07:24:57.034Z,8.70
2022-12-20T07:29:01.252Z,8.80
2022-12-20T07:33:04.129Z,8.80
2022-12-20T07:37:08.510Z,8.80
2022-12-20T07:41:13.280Z,8.80
2022-12-20T07:45:17.632Z,8.80
2022-12-20T07:49:20.498Z,8.80
2022-12-20T07:53:24.810Z,8.80
2022-12-20T07:57:32.364Z,8.80
2022-12-20T08:01:36.864Z,8.80
2022-12-20T08:05:45.040Z,8.80
2022-12-20T08:09:48.311Z,8.80
2022-12-20T08:13:57.439Z,8.80
2022-12-20T08:18:02.195Z,8.70
2022-12-20T08:22:05.153Z,8.70
2022-12-20T08:26:08.358Z,8.80
2022-12-20T08:30:12.459Z,8.90
2022-12-20T08:34:16.745Z,8.90
2022-12-20T08:38:19.653Z,9.00
2022-12-20T08:42:22.533Z,8.90
2022-12-20T08:46:25.484Z,9.00
2022-12-20T08:50:29.838Z,9.10
2022-12-20T08:54:32.693Z,9.20
2022-12-20T08:58:36.444Z,9.20
2022-12-20T09:02:41.278Z,9.30
2022-12-20T09:06:45.688Z,9.30
2022-12-20T09:10:48.541Z,9.30
2022-12-20T09:14:51.364Z,9.30
2022-12-20T09:19:04.343Z,9.40
2022-12-20T09:23:09.512Z,9.50
2022-12-20T09:27:12.360Z,9.50
2022-12-20T09:31:16.728Z,9.50
2022-12-20T09:35:23.294Z,9.50
2022-12-20T09:39:27.884Z,9.50
2022-12-20T09:43:31.303Z,9.40
2022-12-20T09:47:36.861Z,9.50
2022-12-20T09:52:01.265Z,9.60
2022-12-20T09:56:13.487Z,9.60
2022-12-20T10:00:18.928Z,9.60
2022-12-20T10:04:24.975Z,9.70
2022-12-20T10:08:46.954Z,9.70
2022-12-20T10:13:03.069Z,9.70
2022-12-20T10:17:11.414Z,9.80
2022-12-20T10:21:21.903Z,9.80
2022-12-20T10:25:30.099Z,9.80
2022-12-20T10:29:34.282Z,9.80
2022-12-20T10:33:37.054Z,9.80
2022-12-20T10:37:44.351Z,9.70
2022-12-20T10:42:02.822Z,9.70
2022-12-20T10:46:09.149Z,9.70
2022-12-20T10:50:16.943Z,9.70
2022-12-20T10:54:24.345Z,9.80
2022-12-20T10:58:36.523Z,9.80
2022-12-20T11:02:43.988Z,9.80
2022-12-20T11:06:47.050Z,9.90
2022-12-20T11:10:49.892Z,9.90
2022-12-20T11:15:09.178Z,9.90
2022-12-20T11:19:37.754Z,9.90
2022-12-20T11:23:46.763Z,10.00
2022-12-20T11:28:00.656Z,10.00
2022-12-20T11:32:16.453Z,10.20
2022-12-20T11:36:33.557Z,10.30
2022-12-20T11:40:42.490Z,10.30
2022-12-20T11:45:06.630Z,10.50
2022-12-20T11:49:35.969Z,10.60
2022-12-20T11:53:44.680Z,10.60
2022-12-20T11:58:17.591Z,10.70
2022-12-20T12:02:26.766Z,10.80
2022-12-20T12:06:32.564Z,10.90
2022-12-20T12:10:42.095Z,11.00
2022-12-20T12:14:54.003Z,11.10
2022-12-20T12:19:00.419Z,11.20
2022-12-20T12:23:11.623Z,11.20
2022-12-20T12:27:23.683Z,11.30
2022-12-20T12:31:33.299Z,11.30
2022-12-20T12:35:53.609Z,11.40
2022-12-20T12:40:17.060Z,11.40
2022-12-20T12:44:40.860Z,11.40
2022-12-20T12:48:48.059Z,11.50
2022-12-20T12:52:53.173Z,11.60
2022-12-20T12:57:03.317Z,11.60
2022-12-20T13:01:11.298Z,11.60
2022-12-20T13:05:34.565Z,11.60
2022-12-20T13:09:40.519Z,11.50
2022-12-20T13:13:43.320Z,11.50
2022-12-20T13:17:52.749Z,11.60
2022-12-20T13:21:57.736Z,11.50
2022-12-20T13:26:00.657Z,11.40
2022-12-20T13:30:25.569Z,11.40
2022-12-20T13:34:55.844Z,11.40
2022-12-20T13:39:02.144Z,11.40
2022-12-20T13:43:09.553Z,11.40
2022-12-20T13:47:30.720Z,11.50
2022-12-20T13:51:34.909Z,11.50
2022-12-20T13:55:39.369Z,11.70
2022-12-20T13:59:47.235Z,11.90
2022-12-20T14:03:51.094Z,12.00
2022-12-20T14:08:00.809Z,12.10
2022-12-20T14:12:06.345Z,12.10
2022-12-20T14:16:11.413Z,12.10
2022-12-20T14:20:16.631Z,12.20
2022-12-20T14:24:23.489Z,12.10
2022-12-20T14:28:33.907Z,12.20
2022-12-20T14:32:36.984Z,12.20
2022-12-20T14:36:40.889Z,12.20
2022-12-20T14:40:48.953Z,12.20
2022-12-20T14:45:08.000Z,12.10
2022-12-20T14:49:21.008Z,12.10
2022-12-20T14:53:28.604Z,12.10
2022-12-20T14:57:46.174Z,12.00
2022-12-20T15:01:49.111Z,12.00
2022-12-20T15:05:52.778Z,12.00
2022-12-20T15:09:55.465Z,12.00
2022-12-20T15:13:59.989Z,12.00
2022-12-20T15:18:02.761Z,12.00
2022-12-20T15:22:05.945Z,12.00
2022-12-20T15:26:11.302Z,11.90
2022-12-20T15:30:16.150Z,11.80
2022-12-20T15:34:25.154Z,11.80
2022-12-20T15:39:03.418Z,11.80
2022-12-20T15:42:52.918Z,11.70
2022-12-20T15:46:57.036Z,11.60
2022-12-20T15:51:00.549Z,11.40
2022-12-20T15:55:03.310Z,11.30
2022-12-20T15:59:32.417Z,11.10
2022-12-20T16:03:32.695Z,11.00
2022-12-20T16:07:35.747Z,10.90
2022-12-20T16:11:38.553Z,10.80
2022-12-20T16:15:41.285Z,10.80
2022-12-20T16:19:45.391Z,10.80
2022-12-20T16:23:49.932Z,10.70
2022-12-20T16:27:52.746Z,10.60
2022-12-20T16:31:55.556Z,10.60
2022-12-20T16:35:59.735Z,10.60
2022-12-20T16:40:02.623Z,10.50
2022-12-20T16:44:06.787Z,10.50
2022-12-20T16:48:09.575Z,10.50
2022-12-20T16:52:16.879Z,10.50
2022-12-20T16:56:19.776Z,10.50
2022-12-20T17:00:25.168Z,10.50
2022-12-20T17:04:28.243Z,10.40
2022-12-20T17:12:53.204Z,10.40
2022-12-20T17:16:56.010Z,10.30
2022-12-20T17:20:58.995Z,10.30
2022-12-20T17:25:03.220Z,10.10
2022-12-20T17:29:07.645Z,10.00
2022-12-20T17:33:14.893Z,9.90
2022-12-20T17:37:18.135Z,9.80
2022-12-20T17:41:28.347Z,9.70
2022-12-20T17:45:35.549Z,9.60
2022-12-20T17:49:39.841Z,9.60
2022-12-20T17:53:43.097Z,9.40
2022-12-20T17:57:47.892Z,9.30
2022-12-20T18:01:51.498Z,9.20
2022-12-20T18:05:55.299Z,9.20
2022-12-20T18:09:58.147Z,9.20
2022-12-20T18:14:02.510Z,9.10
2022-12-20T18:18:05.732Z,9.10
2022-12-20T18:22:08.547Z,9.10
2022-12-20T18:26:13.585Z,9.10
2022-12-20T18:30:18.022Z,9.20
2022-12-20T18:34:20.894Z,9.20
2022-12-20T18:38:23.708Z,9.20
2022-12-20T18:42:26.463Z,9.20
2022-12-20T18:46:31.530Z,9.20
2022-12-20T18:50:36.969Z,9.30
2022-12-20T18:54:40.995Z,9.30
2022-12-20T18:58:44.892Z,9.30
2022-12-20T19:02:49.342Z,9.30
2022-12-20T19:06:52.387Z,9.40
2022-12-20T19:10:58.349Z,9.30
2022-12-20T19:15:01.070Z,9.30
2022-12-20T19:19:05.302Z,9.40
2022-12-20T19:23:08.295Z,9.40
2022-12-20T19:27:11.233Z,9.50
2022-12-20T19:31:21.254Z,9.50
2022-12-20T19:35:54.204Z,9.50
2022-12-20T19:39:48.894Z,9.50
2022-12-20T19:43:52.345Z,9.60
2022-12-20T19:47:55.123Z,9.70
2022-12-20T19:51:59.265Z,9.60
2022-12-20T19:56:03.401Z,9.60
2022-12-20T20:00:08.648Z,9.70
2022-12-20T20:04:14.431Z,9.70
2022-12-20T20:08:18.488Z,9.70
2022-12-20T20:12:21.223Z,9.70
2022-12-20T20:16:25.206Z,9.70
2022-12-20T20:20:29.978Z,9.80
2022-12-20T20:24:35.221Z,9.80
2022-12-20T20:28:45.006Z,9.80
2022-12-20T20:32:48.387Z,9.80
2022-12-20T20:36:51.181Z,9.80
2022-12-20T20:40:55.348Z,9.80
2022-12-20T20:45:00.113Z,9.90
2022-12-20T20:49:02.826Z,9.90
2022-12-20T20:53:06.921Z,9.90
2022-12-20T20:57:11.365Z,9.90
2022-12-20T21:01:14.313Z,9.80
2022-12-20T21:06:06.361Z,9.70
2022-12-20T21:09:40.345Z,9.70
2022-12-20T21:13:44.525Z,9.70
2022-12-20T21:17:47.242Z,9.70
2022-12-20T21:21:49.980Z,9.70
2022-12-20T21:25:57.142Z,9.70
2022-12-20T21:30:01.457Z,9.70
2022-12-20T21:34:04.400Z,9.90
2022-12-20T21:38:07.684Z,10.20
2022-12-20T21:42:10.418Z,10.30
2022-12-20T21:46:14.714Z,10.50
2022-12-20T21:50:17.875Z,10.60
2022-12-20T21:54:20.688Z,10.60
2022-12-20T21:58:23.634Z,10.60
2022-12-20T22:02:27.803Z,10.70
2022-12-20T22:06:31.696Z,10.70
2022-12-20T22:10:34.571Z,10.70
2022-12-20T22:14:38.027Z,10.70
2022-12-20T22:18:43.155Z,10.70
2022-12-20T22:22:45.884Z,10.70
2022-12-20T22:26:49.199Z,10.70
2022-12-20T22:30:52.702Z,10.70
2022-12-20T22:34:56.737Z,10.60
2022-12-20T22:38:59.575Z,10.60
2022-12-20T22:43:02.268Z,10.50
2022-12-20T22:47:05.879Z,10.50
2022-12-20T22:51:12.651Z,10.50
2022-12-20T22:55:15.561Z,10.40
2022-12-20T22:59:18.328Z,10.40
2022-12-20T23:03:21.171Z,10.30
2022-12-20T23:07:25.499Z,10.30
2022-12-20T23:11:47.167Z,10.20
2022-12-20T23:15:50.051Z,10.10
2022-12-20T23:20:10.539Z,10.00
2022-12-20T23:24:15.705Z,10.00
2022-12-20T23:28:18.464Z,9.90
2022-12-20T23:32:21.242Z,9.80
2022-12-20T23:36:24.158Z,9.70
2022-12-20T23:40:28.408Z,9.60
2022-12-20T23:44:31.289Z,9.60
2022-12-20T23:48:34.885Z,9.50
2022-12-20T23:52:37.716Z,9.40
2022-12-20T23:56:41.807Z,9.40
